Classifiche di sempre
Migliori tempi personali validi di team tra tutti gli eventi e le stagioni. Ogni team compare una sola volta per divisione.
Cerca per nome e apri la pagina in cui è classificato questo record di divisione.
139,649 team in classifica
| Pos. | Pos. AG | Team | Nazionalità | Categoria età | TempoMiglior tempo | Distacco |
|---|---|---|---|---|---|---|
| 128076 | #10614 | Caroline Dwight & Karis JonesUSA · W 16-24 · AG #10614 | USA | W 16-24 | 1:49:57 | +56:36 |
| 128077 | #19360 | Sarah Murphy & Kellie De KrygerAUS · W 25-29 · AG #19360 | AUS | W 25-29 | 1:49:57 | +56:36 |
| 128078 | #4185 | Tamara Cidade & Jennifer VinesUSA · W 45-49 · AG #4185 | USA | W 45-49 | 1:49:57 | +56:36 |
| 128079 | #40590 | Jocely Leon & Susana HernandezMEX · W 30-34 · AG #40590 | MEX | W 30-34 | 1:49:57 | +56:36 |
| 128080 | #40591 | Kat Lee & Iris WongHKG · W 30-34 · AG #40591 | HKG | W 30-34 | 1:49:57 | +56:36 |
| 128081 | #17860 | 嵩 周 & 荔 张CHN · W 40-44 · AG #17860 | CHN | W 40-44 | 1:49:57 | +56:36 |
| 128082 | #40592 | Ludovica Vittoria Comba & Martina CombaITA · W 30-34 · AG #40592 | ITA | W 30-34 | 1:49:57 | +56:36 |
| 128083 | -- | Joy Kerkvliet & Wieke ZijlmansNED · W WU29 | NED | W WU29 | 1:49:57 | +56:36 |
| 128084 | #17858 | Anna Lendrum & Penny LambertGBR · W 40-44 · AG #17858 | GBR | W 40-44 | 1:49:57 | +56:36 |
| 128085 | #17859 | Zoe Musson & Lorna JenkinsGBR · W 40-44 · AG #17859 | GBR | W 40-44 | 1:49:57 | +56:36 |
| 128086 | -- | Sally Parnell & Ffion LucasGBR · W WU29 | GBR | W WU29 | 1:49:57 | +56:36 |
| 128087 | #40593 | Messaline Paillet & Marion ChevalierFRA · W 30-34 · AG #40593 | FRA | W 30-34 | 1:49:57 | +56:36 |
| 128088 | #847 | Jaqueline Risch & Raluca MunteanuGER · W 16-29 · AG #847 | GER | W 16-29 | 1:49:57 | +56:36 |
| 128089 | #19362 | Erika Marin & Abygail SalinasUSA · W 25-29 · AG #19362 | USA | W 25-29 | 1:49:57 | +56:36 |
| 128090 | #19363 | Carolin Breuckmann & Ruth SchiemannGER · W 25-29 · AG #19363 | GER | W 25-29 | 1:49:57 | +56:36 |
| 128091 | #13954 | Ana Queirós & Rita TeixeiraPOR · W 35-39 · AG #13954 | POR | W 35-39 | 1:49:57 | +56:36 |
| 128092 | #40594 | Fenna De Jong & Nienke OostraNED · W 30-34 · AG #40594 | NED | W 30-34 | 1:49:58 | +56:37 |
| 128093 | #13955 | Hui Hui Chin & Gizelle SuguitanW 35-39 · AG #13955 | -- | W 35-39 | 1:49:58 | +56:37 |
| 128094 | #4186 | Johanna Josefsson & Therese JonsonSWE · W 45-49 · AG #4186 | SWE | W 45-49 | 1:49:58 | +56:37 |
| 128095 | #17861 | Ekpenyong Oshungboye & Adanma AbalunamGBR · W 40-44 · AG #17861 | GBR | W 40-44 | 1:49:58 | +56:37 |
| 128096 | -- | 주현 박 & 인아 설W WU29 | -- | W WU29 | 1:49:58 | +56:37 |
| 128097 | #40595 | Amy Cooke & Louise WilsonGBR · W 30-34 · AG #40595 | GBR | W 30-34 | 1:49:58 | +56:37 |
| 128098 | #40596 | Taylor Haynes & Donielle CooperUSA · W 30-34 · AG #40596 | USA | W 30-34 | 1:49:58 | +56:37 |
| 128099 | -- | Claudia Gramlich & Emely HärdleGER · W WU29 | GER | W WU29 | 1:49:58 | +56:37 |
| 128100 | #40597 | Charlene Bong & Emma TingMAS · W 30-34 · AG #40597 | MAS | W 30-34 | 1:49:58 | +56:37 |
Pagina 5,124 di 5,586